createdAt,value
2022-08-18T00:01:14.769Z,30.60
2022-08-18T00:03:55.485Z,31.85
2022-08-18T00:06:28.982Z,30.27
2022-08-18T00:09:02.021Z,28.20
2022-08-18T00:11:40.738Z,28.98
2022-08-18T00:14:21.384Z,29.42
2022-08-18T00:16:50.334Z,30.33
2022-08-18T00:19:17.854Z,30.25
2022-08-18T00:21:45.205Z,30.60
2022-08-18T00:24:12.421Z,31.08
2022-08-18T00:26:39.874Z,31.27
2022-08-18T00:29:08.557Z,30.65
2022-08-18T00:31:36.041Z,31.05
2022-08-18T00:34:03.574Z,31.48
2022-08-18T00:36:32.639Z,32.47
2022-08-18T00:38:59.780Z,30.52
2022-08-18T00:41:27.829Z,30.20
2022-08-18T00:43:58.507Z,31.33
2022-08-18T00:46:29.170Z,29.98
2022-08-18T00:48:57.516Z,31.35
2022-08-18T00:51:26.608Z,29.83
2022-08-18T00:54:07.347Z,30.20
2022-08-18T00:56:42.830Z,30.98
2022-08-18T00:59:16.100Z,31.88
2022-08-18T01:01:45.109Z,29.75
2022-08-18T01:04:17.974Z,31.90
2022-08-18T01:06:52.110Z,30.27
2022-08-18T01:09:19.365Z,29.42
2022-08-18T01:11:46.749Z,30.80
2022-08-18T01:14:18.369Z,31.55
2022-08-18T01:17:08.652Z,31.05
2022-08-18T01:19:55.191Z,30.15
2022-08-18T01:22:30.513Z,31.45
2022-08-18T01:25:18.991Z,30.90
2022-08-18T01:27:46.252Z,29.92
2022-08-18T01:30:18.221Z,32.20
2022-08-18T01:32:48.020Z,33.47
2022-08-18T01:35:17.841Z,31.65
2022-08-18T01:37:45.463Z,30.33
2022-08-18T01:41:23.344Z,34.53
2022-08-18T01:43:05.820Z,32.30
2022-08-18T01:45:33.566Z,30.35
2022-08-18T01:48:01.292Z,31.58
2022-08-18T01:50:30.457Z,32.33
2022-08-18T01:52:57.610Z,33.42
2022-08-18T01:55:26.940Z,31.83
2022-08-18T01:57:55.761Z,32.58
2022-08-18T02:00:24.974Z,32.67
2022-08-18T02:02:58.116Z,32.53
2022-08-18T02:05:34.751Z,32.83
2022-08-18T02:08:03.150Z,31.15
2022-08-18T02:10:31.474Z,32.08
2022-08-18T02:12:58.945Z,31.60
2022-08-18T02:15:26.421Z,31.92
2022-08-18T02:17:54.008Z,31.98
2022-08-18T02:20:21.323Z,33.00
2022-08-18T02:22:49.725Z,32.80
2022-08-18T02:25:18.285Z,31.17
2022-08-18T02:27:46.237Z,32.95
2022-08-18T02:30:16.163Z,32.22
2022-08-18T02:32:43.986Z,31.13
2022-08-18T02:35:12.242Z,30.75
2022-08-18T02:37:45.660Z,32.53
2022-08-18T02:40:15.176Z,31.73
2022-08-18T02:42:44.439Z,30.00
2022-08-18T02:45:13.475Z,28.05
2022-08-18T02:47:42.867Z,28.02
2022-08-18T02:50:16.798Z,29.83
2022-08-18T02:52:44.459Z,29.85
2022-08-18T02:55:12.339Z,33.47
2022-08-18T02:57:44.769Z,35.13
2022-08-18T03:00:18.789Z,34.60
2022-08-18T03:02:48.327Z,31.08
2022-08-18T03:05:16.485Z,32.50
2022-08-18T03:07:44.411Z,30.55
2022-08-18T03:10:33.007Z,30.02
2022-08-18T03:13:00.069Z,31.52
2022-08-18T03:15:27.511Z,30.25
2022-08-18T03:17:55.471Z,34.67
2022-08-18T03:20:30.796Z,34.28
2022-08-18T03:22:59.005Z,31.80
2022-08-18T03:25:26.629Z,32.67
2022-08-18T03:27:53.861Z,31.45
2022-08-18T03:30:21.287Z,30.10
2022-08-18T03:32:49.484Z,30.25
2022-08-18T03:35:16.891Z,29.80
2022-08-18T03:37:44.903Z,30.20
2022-08-18T03:40:12.937Z,30.17
2022-08-18T03:42:40.417Z,28.88
2022-08-18T03:45:13.147Z,32.13
2022-08-18T03:47:46.118Z,31.90
2022-08-18T03:50:14.179Z,30.35
2022-08-18T03:52:41.989Z,30.77
2022-08-18T03:55:09.716Z,36.35
2022-08-18T03:57:39.092Z,34.55
2022-08-18T04:00:09.083Z,31.13
2022-08-18T04:02:36.783Z,31.00
2022-08-18T04:05:05.299Z,30.40
2022-08-18T04:07:32.905Z,30.13
2022-08-18T04:10:00.630Z,30.88
2022-08-18T04:12:28.101Z,32.45
2022-08-18T04:14:55.225Z,34.78
2022-08-18T04:17:25.759Z,36.38
2022-08-18T04:19:54.627Z,37.60
2022-08-18T04:22:23.083Z,37.10
2022-08-18T04:24:51.135Z,37.88
2022-08-18T04:27:19.886Z,36.38
2022-08-18T04:29:47.970Z,34.85
2022-08-18T04:32:16.127Z,37.17
2022-08-18T04:34:43.513Z,37.25
2022-08-18T04:37:11.232Z,34.75
2022-08-18T04:39:39.033Z,33.72
2022-08-18T04:42:06.438Z,32.80
2022-08-18T04:44:35.360Z,30.40
2022-08-18T04:47:02.823Z,32.15
2022-08-18T04:49:31.948Z,30.08
2022-08-18T04:52:37.170Z,29.50
2022-08-18T04:55:06.601Z,29.55
2022-08-18T04:57:35.199Z,28.70
2022-08-18T05:00:05.401Z,27.73
2022-08-18T05:02:33.781Z,28.38
2022-08-18T05:05:03.482Z,26.98
2022-08-18T05:07:31.033Z,26.25
2022-08-18T05:09:58.672Z,25.27
2022-08-18T05:12:26.807Z,24.45
2022-08-18T05:14:57.253Z,24.45
2022-08-18T05:17:30.393Z,24.52
2022-08-18T05:20:01.431Z,22.50
2022-08-18T05:22:31.699Z,23.23
2022-08-18T05:25:00.612Z,22.35
2022-08-18T05:27:33.013Z,20.27
2022-08-18T05:30:00.689Z,20.77
2022-08-18T05:32:47.626Z,20.55
2022-08-18T05:35:24.044Z,20.92
2022-08-18T05:38:09.910Z,20.95
2022-08-18T05:40:37.721Z,19.92
2022-08-18T05:43:05.830Z,19.95
2022-08-18T05:45:34.761Z,20.15
2022-08-18T05:48:02.642Z,20.67
2022-08-18T05:50:33.105Z,20.65
2022-08-18T05:53:40.580Z,20.98
2022-08-18T05:56:29.017Z,23.10
2022-08-18T05:58:57.747Z,22.73
2022-08-18T06:01:33.211Z,21.90
2022-08-18T06:04:09.655Z,22.38
2022-08-18T06:06:37.431Z,23.13
2022-08-18T06:09:32.854Z,24.38
2022-08-18T06:12:22.967Z,24.08
2022-08-18T06:14:50.327Z,26.45
2022-08-18T06:17:55.165Z,26.00
2022-08-18T06:20:30.255Z,25.90
2022-08-18T06:23:16.508Z,24.58
2022-08-18T06:25:50.713Z,25.55
2022-08-18T06:28:18.651Z,23.85
2022-08-18T06:31:00.807Z,23.00
2022-08-18T06:33:29.768Z,23.35
2022-08-18T06:36:02.710Z,21.98
2022-08-18T06:38:45.619Z,21.27
2022-08-18T06:44:25.021Z,22.00
2022-08-18T06:47:15.630Z,20.92
2022-08-18T06:49:55.017Z,20.50
2022-08-18T06:52:25.944Z,21.27
2022-08-18T06:54:56.120Z,19.23
2022-08-18T06:57:29.159Z,20.88
2022-08-18T07:00:00.450Z,19.58
2022-08-18T07:02:56.764Z,18.40
2022-08-18T07:05:28.315Z,16.30
2022-08-18T07:08:15.969Z,15.02
2022-08-18T07:10:51.311Z,17.75
2022-08-18T07:13:19.878Z,14.02
2022-08-18T07:15:48.596Z,13.80
2022-08-18T07:18:24.510Z,14.00
2022-08-18T07:20:58.536Z,13.68
2022-08-18T07:23:30.511Z,14.70
2022-08-18T07:26:08.942Z,13.80
2022-08-18T07:28:45.884Z,14.20
2022-08-18T07:31:37.074Z,12.10
2022-08-18T07:34:37.254Z,13.00
2022-08-18T07:37:08.627Z,10.73
2022-08-18T07:40:00.790Z,13.80
2022-08-18T07:42:53.600Z,11.63
2022-08-18T07:45:32.093Z,11.77
2022-08-18T07:48:38.563Z,11.68
2022-08-18T07:51:17.300Z,10.25
2022-08-18T07:53:55.690Z,10.55
2022-08-18T07:56:44.821Z,11.40
2022-08-18T07:59:18.537Z,10.93
2022-08-18T08:01:56.313Z,9.68
2022-08-18T08:04:37.437Z,11.07
2022-08-18T08:07:30.518Z,11.23
2022-08-18T08:10:28.625Z,11.82
2022-08-18T08:13:09.270Z,10.02
2022-08-18T08:15:57.214Z,11.55
2022-08-18T08:18:35.680Z,11.75
2022-08-18T08:21:10.882Z,11.82
2022-08-18T08:23:53.531Z,11.20
2022-08-18T08:26:51.183Z,10.27
2022-08-18T08:29:52.044Z,10.50
2022-08-18T08:32:26.939Z,9.98
2022-08-18T08:35:49.411Z,9.90
2022-08-18T08:38:38.729Z,9.55
2022-08-18T08:41:11.439Z,10.35
2022-08-18T08:43:50.132Z,10.68
2022-08-18T08:46:25.165Z,11.35
2022-08-18T08:49:22.160Z,10.35
2022-08-18T08:51:57.624Z,11.52
2022-08-18T08:54:31.301Z,11.15
2022-08-18T08:57:00.884Z,9.48
2022-08-18T08:59:28.344Z,9.65
2022-08-18T09:02:15.928Z,9.15
2022-08-18T09:05:08.656Z,9.07
2022-08-18T09:08:03.164Z,9.75
2022-08-18T09:11:01.691Z,10.02
2022-08-18T09:14:06.671Z,10.95
2022-08-18T09:16:42.880Z,9.90
2022-08-18T09:19:36.742Z,11.88
2022-08-18T09:22:34.293Z,10.75
2022-08-18T09:25:01.906Z,11.18
2022-08-18T09:28:00.084Z,10.20
2022-08-18T09:31:00.013Z,10.38
2022-08-18T09:33:51.890Z,9.40
2022-08-18T09:36:48.736Z,9.57
2022-08-18T09:42:50.370Z,9.55
2022-08-18T09:45:33.368Z,9.23
2022-08-18T09:48:08.729Z,9.98
2022-08-18T09:50:57.993Z,9.85
2022-08-18T09:53:36.785Z,9.50
2022-08-18T09:56:06.506Z,9.90
2022-08-18T10:01:52.115Z,10.15
2022-08-18T10:04:51.857Z,10.52
2022-08-18T10:07:38.773Z,11.45
2022-08-18T10:11:00.854Z,10.07
2022-08-18T10:13:39.211Z,8.98
2022-08-18T10:16:25.969Z,10.18
2022-08-18T10:19:04.471Z,9.80
2022-08-18T10:21:56.175Z,10.63
2022-08-18T10:27:57.284Z,8.80
2022-08-18T10:30:56.717Z,9.45
2022-08-18T10:33:53.320Z,8.60
2022-08-18T10:36:45.459Z,7.68
2022-08-18T10:39:41.680Z,8.02
2022-08-18T10:42:31.454Z,7.72
2022-08-18T10:45:22.016Z,9.30
2022-08-18T10:48:17.299Z,8.20
2022-08-18T10:51:11.624Z,8.75
2022-08-18T10:53:51.853Z,8.88
2022-08-18T10:56:48.358Z,8.95
2022-08-18T10:59:50.582Z,8.52
2022-08-18T11:02:39.983Z,8.50
2022-08-18T11:05:11.314Z,9.32
2022-08-18T11:07:43.051Z,7.75
2022-08-18T11:10:32.170Z,7.75
2022-08-18T11:13:08.756Z,7.20
2022-08-18T11:15:48.072Z,6.90
2022-08-18T11:18:30.196Z,7.07
2022-08-18T11:21:23.734Z,7.22
2022-08-18T11:24:10.172Z,7.18
2022-08-18T11:26:53.111Z,7.70
2022-08-18T11:29:33.029Z,6.25
2022-08-18T11:32:22.343Z,6.53
2022-08-18T11:35:06.136Z,6.07
2022-08-18T11:46:31.580Z,7.20
2022-08-18T11:49:02.075Z,6.35
2022-08-18T11:51:33.858Z,5.55
2022-08-18T11:54:05.135Z,6.88
2022-08-18T11:56:37.645Z,6.40
2022-08-18T11:59:25.695Z,6.38
2022-08-18T12:02:17.489Z,6.93
2022-08-18T12:04:50.904Z,7.28
2022-08-18T12:07:30.923Z,7.45
2022-08-18T12:13:22.776Z,7.32
2022-08-18T12:16:09.391Z,8.13
2022-08-18T12:18:37.759Z,7.55
2022-08-18T12:21:06.280Z,7.20
2022-08-18T12:26:26.963Z,7.82
2022-08-18T12:29:08.961Z,8.40
2022-08-18T12:31:42.660Z,7.20
2022-08-18T12:34:24.913Z,7.28
2022-08-18T12:37:01.548Z,7.13
2022-08-18T12:39:30.413Z,7.57
2022-08-18T12:41:59.774Z,7.68
2022-08-18T12:44:27.715Z,8.05
2022-08-18T12:46:56.211Z,7.60
2022-08-18T12:49:25.210Z,7.80
2022-08-18T12:51:55.894Z,7.75
2022-08-18T12:54:25.276Z,7.72
2022-08-18T12:56:54.943Z,8.10
2022-08-18T12:59:24.787Z,8.02
2022-08-18T13:01:58.525Z,7.95
2022-08-18T13:04:27.700Z,7.82
2022-08-18T13:06:59.889Z,8.15
2022-08-18T13:09:48.536Z,7.93
2022-08-18T13:12:20.875Z,7.97
2022-08-18T13:14:50.776Z,7.65
2022-08-18T13:17:32.136Z,7.57
2022-08-18T13:20:10.690Z,7.50
2022-08-18T13:22:41.618Z,8.00
2022-08-18T13:25:32.199Z,7.57
2022-08-18T13:28:00.856Z,7.38
2022-08-18T13:30:32.125Z,7.50
2022-08-18T13:33:05.446Z,7.88
2022-08-18T13:35:54.545Z,7.53
2022-08-18T13:38:27.391Z,7.50
2022-08-18T13:40:59.349Z,7.28
2022-08-18T13:43:32.435Z,7.57
2022-08-18T13:46:03.934Z,7.68
2022-08-18T13:48:32.258Z,7.22
2022-08-18T13:51:01.735Z,7.10
2022-08-18T13:53:31.627Z,7.50
2022-08-18T13:55:59.561Z,7.07
2022-08-18T13:58:28.190Z,7.53
2022-08-18T14:01:16.045Z,7.85
2022-08-18T14:03:47.394Z,7.68
2022-08-18T14:06:22.006Z,7.80
2022-08-18T14:08:52.373Z,7.43
2022-08-18T14:11:23.714Z,7.72
2022-08-18T14:13:54.535Z,7.38
2022-08-18T14:16:26.636Z,7.82
2022-08-18T14:19:28.433Z,8.50
2022-08-18T14:22:14.771Z,8.07
2022-08-18T14:25:01.683Z,8.23
2022-08-18T14:27:35.210Z,8.77
2022-08-18T14:30:07.563Z,8.07
2022-08-18T14:32:36.669Z,8.52
2022-08-18T14:35:33.386Z,7.70
2022-08-18T14:38:05.688Z,8.15
2022-08-18T14:40:33.721Z,7.72
2022-08-18T14:43:06.476Z,7.15
2022-08-18T14:45:35.852Z,6.95
2022-08-18T14:48:07.710Z,7.45
2022-08-18T14:50:44.688Z,7.13
2022-08-18T14:53:20.263Z,7.63
2022-08-18T14:55:52.333Z,8.15
2022-08-18T14:58:21.002Z,7.57
2022-08-18T15:00:53.774Z,8.23
2022-08-18T15:03:31.129Z,8.50
2022-08-18T15:06:04.723Z,7.93
2022-08-18T15:08:35.734Z,8.15
2022-08-18T15:11:11.544Z,7.70
2022-08-18T15:13:46.668Z,7.25
2022-08-18T15:16:16.329Z,8.25
2022-08-18T15:18:45.089Z,8.23
2022-08-18T15:21:35.639Z,7.90
2022-08-18T15:24:26.564Z,8.90
2022-08-18T15:26:58.159Z,7.78
2022-08-18T15:29:34.133Z,8.43
2022-08-18T15:32:06.182Z,7.47
2022-08-18T15:34:47.101Z,7.20
2022-08-18T15:37:22.323Z,7.60
2022-08-18T15:40:03.144Z,7.80
2022-08-18T15:42:31.294Z,7.90
2022-08-18T15:45:11.743Z,8.27
2022-08-18T15:47:41.693Z,8.13
2022-08-18T15:50:25.172Z,7.97
2022-08-18T15:52:58.067Z,8.10
2022-08-18T15:55:28.739Z,8.13
2022-08-18T15:57:58.353Z,7.93
2022-08-18T16:00:27.925Z,7.70
2022-08-18T16:03:00.061Z,7.63
2022-08-18T16:05:31.175Z,8.38
2022-08-18T16:08:01.346Z,7.57
2022-08-18T16:10:33.315Z,8.48
2022-08-18T16:13:04.835Z,8.73
2022-08-18T16:15:39.120Z,8.52
2022-08-18T16:18:08.876Z,8.95
2022-08-18T16:20:36.956Z,8.10
2022-08-18T16:23:05.612Z,8.73
2022-08-18T16:25:33.903Z,8.68
2022-08-18T16:28:01.884Z,8.10
2022-08-18T16:30:29.473Z,7.90
2022-08-18T16:33:02.978Z,8.70
2022-08-18T16:35:31.449Z,7.97
2022-08-18T16:38:04.735Z,8.25
2022-08-18T16:40:32.159Z,8.88
2022-08-18T16:43:00.769Z,7.95
2022-08-18T16:45:29.055Z,7.88
2022-08-18T16:47:56.444Z,7.90
2022-08-18T16:50:25.479Z,8.77
2022-08-18T16:52:53.124Z,8.65
2022-08-18T16:55:20.790Z,8.52
2022-08-18T16:58:07.263Z,8.05
2022-08-18T17:00:55.244Z,7.85
2022-08-18T17:03:42.608Z,8.88
2022-08-18T17:06:13.998Z,9.15
2022-08-18T17:08:43.233Z,8.97
2022-08-18T17:11:13.970Z,7.78
2022-08-18T17:13:42.231Z,8.50
2022-08-18T17:16:11.341Z,8.77
2022-08-18T17:18:39.270Z,8.77
2022-08-18T17:21:09.663Z,8.73
2022-08-18T17:23:39.151Z,8.68
2022-08-18T17:26:16.707Z,8.90
2022-08-18T17:28:55.568Z,8.93
2022-08-18T17:31:24.789Z,8.57
2022-08-18T17:33:57.443Z,9.45
2022-08-18T17:36:52.843Z,9.20
2022-08-18T17:39:26.751Z,8.73
2022-08-18T17:42:12.660Z,8.77
2022-08-18T17:44:46.318Z,8.82
2022-08-18T17:47:27.404Z,8.88
2022-08-18T17:50:26.711Z,9.88
2022-08-18T17:53:01.584Z,9.95
2022-08-18T17:55:43.205Z,10.05
2022-08-18T17:58:29.456Z,10.00
2022-08-18T18:00:57.570Z,10.23
2022-08-18T18:03:25.011Z,11.02
2022-08-18T18:05:59.822Z,10.02
2022-08-18T18:08:54.053Z,10.07
2022-08-18T18:11:31.211Z,10.45
2022-08-18T18:14:00.771Z,10.68
2022-08-18T18:16:35.278Z,10.70
2022-08-18T18:19:06.381Z,10.50
2022-08-18T18:22:00.937Z,11.25
2022-08-18T18:24:30.622Z,11.15
2022-08-18T18:26:58.510Z,11.82
2022-08-18T18:29:33.251Z,12.25
2022-08-18T18:32:05.199Z,11.82
2022-08-18T18:34:39.745Z,12.40
2022-08-18T18:37:27.479Z,12.48
2022-08-18T18:39:57.873Z,12.60
2022-08-18T18:42:28.972Z,12.77
2022-08-18T18:44:59.358Z,12.57
2022-08-18T18:47:56.184Z,13.35
2022-08-18T18:50:38.893Z,13.13
2022-08-18T18:54:00.903Z,13.68
2022-08-18T18:56:28.268Z,13.60
2022-08-18T18:59:12.705Z,13.55
2022-08-18T19:02:22.127Z,13.18
2022-08-18T19:08:02.111Z,13.30
2022-08-18T19:10:35.683Z,13.60
2022-08-18T19:13:32.441Z,13.48
2022-08-18T19:16:24.614Z,14.43
2022-08-18T19:19:38.245Z,14.10
2022-08-18T19:22:03.504Z,13.88
2022-08-18T19:24:42.457Z,14.45
2022-08-18T19:27:23.353Z,15.75
2022-08-18T19:29:55.115Z,14.40
2022-08-18T19:32:29.190Z,15.63
2022-08-18T19:34:57.408Z,15.60
2022-08-18T19:37:40.855Z,15.18
2022-08-18T19:40:20.051Z,15.90
2022-08-18T19:43:26.730Z,15.48
2022-08-18T19:46:11.096Z,15.93
2022-08-18T19:48:43.648Z,15.65
2022-08-18T19:54:00.003Z,15.30
2022-08-18T19:56:27.756Z,17.25
2022-08-18T19:59:21.441Z,15.20
2022-08-18T20:02:27.301Z,16.10
2022-08-18T20:05:26.722Z,15.18
2022-08-18T20:08:18.972Z,15.45
2022-08-18T20:11:15.334Z,15.25
2022-08-18T20:13:44.910Z,16.27
2022-08-18T20:16:23.775Z,15.60
2022-08-18T20:18:57.618Z,14.73
2022-08-18T20:21:36.812Z,15.70
2022-08-18T20:24:38.421Z,16.58
2022-08-18T20:27:38.580Z,15.85
2022-08-18T20:30:33.107Z,16.33
2022-08-18T20:33:09.399Z,16.75
2022-08-18T20:35:47.129Z,15.65
2022-08-18T20:38:37.477Z,15.77
2022-08-18T20:41:23.774Z,15.57
2022-08-18T20:44:28.621Z,16.40
2022-08-18T20:47:09.327Z,15.65
2022-08-18T20:50:02.649Z,15.77
2022-08-18T20:52:43.401Z,16.52
2022-08-18T20:55:34.867Z,16.60
2022-08-18T20:58:08.362Z,16.02
2022-08-18T21:00:40.821Z,16.35
2022-08-18T21:03:13.133Z,14.90
2022-08-18T21:05:43.696Z,15.20
2022-08-18T21:08:17.136Z,15.75
2022-08-18T21:10:51.767Z,17.00
2022-08-18T21:13:41.522Z,17.52
2022-08-18T21:16:11.611Z,16.63
2022-08-18T21:18:41.021Z,16.63
2022-08-18T21:21:19.202Z,17.02
2022-08-18T21:23:58.143Z,17.73
2022-08-18T21:26:27.960Z,19.00
2022-08-18T21:28:58.759Z,18.27
2022-08-18T21:31:43.040Z,17.75
2022-08-18T21:34:31.721Z,17.02
2022-08-18T21:37:01.934Z,17.38
2022-08-18T21:39:29.682Z,16.77
2022-08-18T21:41:58.589Z,17.17
2022-08-18T21:44:42.045Z,17.65
2022-08-18T21:47:15.759Z,17.35
2022-08-18T21:50:01.384Z,17.13
2022-08-18T21:52:30.514Z,17.50
2022-08-18T21:55:03.711Z,16.98
2022-08-18T21:57:51.973Z,16.75
2022-08-18T22:01:07.050Z,16.80
2022-08-18T22:03:36.139Z,16.88
2022-08-18T22:06:36.073Z,17.80
2022-08-18T22:09:28.137Z,17.33
2022-08-18T22:12:37.301Z,17.60
2022-08-18T22:15:07.678Z,17.05
2022-08-18T22:17:58.089Z,15.40
2022-08-18T22:20:43.133Z,16.20
2022-08-18T22:23:31.800Z,16.52
2022-08-18T22:26:21.193Z,16.08
2022-08-18T22:29:08.549Z,16.38
2022-08-18T22:31:39.050Z,16.35
2022-08-18T22:34:09.923Z,17.30
2022-08-18T22:36:40.034Z,18.10
2022-08-18T22:39:10.313Z,17.00
2022-08-18T22:41:38.049Z,15.52
2022-08-18T22:44:06.238Z,16.52
2022-08-18T22:46:34.823Z,17.60
2022-08-18T22:49:03.910Z,16.58
2022-08-18T22:51:36.692Z,16.98
2022-08-18T22:54:08.238Z,16.75
2022-08-18T22:56:38.015Z,16.13
2022-08-18T22:59:15.638Z,16.55
2022-08-18T23:01:48.787Z,17.10
2022-08-18T23:04:19.651Z,16.05
2022-08-18T23:06:52.148Z,16.10
2022-08-18T23:09:22.242Z,16.20
2022-08-18T23:11:50.147Z,15.30
2022-08-18T23:14:18.281Z,15.23
2022-08-18T23:16:47.057Z,15.73
2022-08-18T23:19:16.214Z,15.55
2022-08-18T23:21:43.720Z,16.25
2022-08-18T23:24:13.775Z,15.70
2022-08-18T23:26:41.652Z,15.35
2022-08-18T23:29:11.779Z,14.80
2022-08-18T23:31:40.800Z,15.85
2022-08-18T23:34:08.925Z,16.75
2022-08-18T23:36:41.317Z,15.45
2022-08-18T23:39:11.442Z,15.68
2022-08-18T23:41:38.933Z,16.17
2022-08-18T23:44:06.765Z,16.65
2022-08-18T23:46:35.090Z,15.65
2022-08-18T23:49:04.681Z,16.73
2022-08-18T23:51:44.176Z,16.42
2022-08-18T23:54:22.849Z,17.65
2022-08-18T23:56:50.645Z,17.73
2022-08-18T23:59:19.826Z,17.17
